sensor_id;sensor_type;location;lat;lon;timestamp;temperature;humidity
30250;DHT22;17064;47.974;13.826;2022-12-18T00:04:11;-5.40;99.90
30250;DHT22;17064;47.974;13.826;2022-12-18T00:09:16;-5.60;99.90
30250;DHT22;17064;47.974;13.826;2022-12-18T00:14:17;-5.70;99.90
30250;DHT22;17064;47.974;13.826;2022-12-18T00:19:17;-5.70;99.90
30250;DHT22;17064;47.974;13.826;2022-12-18T00:24:18;-5.80;99.90
30250;DHT22;17064;47.974;13.826;2022-12-18T00:29:19;-5.80;99.90
30250;DHT22;17064;47.974;13.826;2022-12-18T00:34:19;-5.90;99.90
30250;DHT22;17064;47.974;13.826;2022-12-18T00:39:20;-6.00;99.90
30250;DHT22;17064;47.974;13.826;2022-12-18T00:44:21;-6.10;99.90
30250;DHT22;17064;47.974;13.826;2022-12-18T00:49:22;-6.20;99.90
30250;DHT22;17064;47.974;13.826;2022-12-18T00:54:22;-6.30;99.90
30250;DHT22;17064;47.974;13.826;2022-12-18T00:59:23;-6.20;99.90
30250;DHT22;17064;47.974;13.826;2022-12-18T01:04:24;-6.20;99.90
30250;DHT22;17064;47.974;13.826;2022-12-18T01:09:24;-6.10;99.90
30250;DHT22;17064;47.974;13.826;2022-12-18T01:14:25;-6.20;99.90
30250;DHT22;17064;47.974;13.826;2022-12-18T01:19:26;-6.20;99.90
30250;DHT22;17064;47.974;13.826;2022-12-18T01:24:26;-6.20;99.90
30250;DHT22;17064;47.974;13.826;2022-12-18T01:29:27;-6.20;99.90
30250;DHT22;17064;47.974;13.826;2022-12-18T01:34:28;-6.20;99.90
30250;DHT22;17064;47.974;13.826;2022-12-18T01:39:28;-6.20;99.90
30250;DHT22;17064;47.974;13.826;2022-12-18T01:50:24;-6.20;99.90
30250;DHT22;17064;47.974;13.826;2022-12-18T01:55:29;-6.20;99.90
30250;DHT22;17064;47.974;13.826;2022-12-18T02:00:31;-6.20;99.90
30250;DHT22;17064;47.974;13.826;2022-12-18T02:15:54;-6.60;99.90
30250;DHT22;17064;47.974;13.826;2022-12-18T02:21:10;-6.70;99.90
30250;DHT22;17064;47.974;13.826;2022-12-18T02:26:24;-6.80;99.90
30250;DHT22;17064;47.974;13.826;2022-12-18T02:31:30;-6.80;99.90
30250;DHT22;17064;47.974;13.826;2022-12-18T02:36:33;-6.90;99.90
30250;DHT22;17064;47.974;13.826;2022-12-18T02:41:35;-7.00;99.90
30250;DHT22;17064;47.974;13.826;2022-12-18T02:46:42;-7.10;99.90
30250;DHT22;17064;47.974;13.826;2022-12-18T02:57:35;-7.50;99.90
30250;DHT22;17064;47.974;13.826;2022-12-18T03:02:54;-7.80;99.90
30250;DHT22;17064;47.974;13.826;2022-12-18T03:07:58;-7.90;99.90
30250;DHT22;17064;47.974;13.826;2022-12-18T03:13:09;-8.00;99.90
30250;DHT22;17064;47.974;13.826;2022-12-18T03:18:29;-8.10;99.90
30250;DHT22;17064;47.974;13.826;2022-12-18T03:23:35;-8.20;99.90
30250;DHT22;17064;47.974;13.826;2022-12-18T03:28:42;-8.30;99.90
30250;DHT22;17064;47.974;13.826;2022-12-18T03:33:54;-8.40;99.90
30250;DHT22;17064;47.974;13.826;2022-12-18T03:38:58;-8.50;99.90
30250;DHT22;17064;47.974;13.826;2022-12-18T03:54:11;-8.90;99.90
30250;DHT22;17064;47.974;13.826;2022-12-18T03:59:14;-9.10;99.90
30250;DHT22;17064;47.974;13.826;2022-12-18T04:04:16;-9.20;99.90
30250;DHT22;17064;47.974;13.826;2022-12-18T04:09:19;-9.30;99.90
30250;DHT22;17064;47.974;13.826;2022-12-18T04:14:20;-9.40;99.90
30250;DHT22;17064;47.974;13.826;2022-12-18T04:19:21;-9.50;99.90
30250;DHT22;17064;47.974;13.826;2022-12-18T04:24:22;-9.50;99.90
30250;DHT22;17064;47.974;13.826;2022-12-18T04:29:23;-9.60;99.90
30250;DHT22;17064;47.974;13.826;2022-12-18T04:34:23;-9.70;99.90
30250;DHT22;17064;47.974;13.826;2022-12-18T04:39:24;-9.80;99.90
30250;DHT22;17064;47.974;13.826;2022-12-18T04:44:25;-9.80;99.90
30250;DHT22;17064;47.974;13.826;2022-12-18T04:49:25;-10.00;99.90
30250;DHT22;17064;47.974;13.826;2022-12-18T04:54:26;-10.00;99.90
30250;DHT22;17064;47.974;13.826;2022-12-18T04:59:27;-10.00;99.90
30250;DHT22;17064;47.974;13.826;2022-12-18T05:04:27;-10.00;99.90
30250;DHT22;17064;47.974;13.826;2022-12-18T05:09:28;-9.90;99.90
30250;DHT22;17064;47.974;13.826;2022-12-18T05:14:29;-9.80;99.90
30250;DHT22;17064;47.974;13.826;2022-12-18T05:19:29;-9.70;99.90
30250;DHT22;17064;47.974;13.826;2022-12-18T05:24:30;-9.60;99.90
30250;DHT22;17064;47.974;13.826;2022-12-18T05:29:31;-9.40;99.90
30250;DHT22;17064;47.974;13.826;2022-12-18T05:34:31;-9.20;99.90
30250;DHT22;17064;47.974;13.826;2022-12-18T05:39:33;-9.10;99.90
30250;DHT22;17064;47.974;13.826;2022-12-18T05:44:34;-8.90;99.90
30250;DHT22;17064;47.974;13.826;2022-12-18T05:49:35;-8.70;99.90
30250;DHT22;17064;47.974;13.826;2022-12-18T05:54:35;-8.60;99.90
30250;DHT22;17064;47.974;13.826;2022-12-18T05:59:36;-8.50;99.90
30250;DHT22;17064;47.974;13.826;2022-12-18T06:04:37;-8.40;99.90
30250;DHT22;17064;47.974;13.826;2022-12-18T06:09:37;-8.40;99.90
30250;DHT22;17064;47.974;13.826;2022-12-18T06:14:38;-8.30;99.90
30250;DHT22;17064;47.974;13.826;2022-12-18T06:19:39;-8.20;99.90
30250;DHT22;17064;47.974;13.826;2022-12-18T06:24:40;-8.20;99.90
30250;DHT22;17064;47.974;13.826;2022-12-18T06:29:40;-8.20;99.90
30250;DHT22;17064;47.974;13.826;2022-12-18T06:34:41;-8.10;99.90
30250;DHT22;17064;47.974;13.826;2022-12-18T06:39:42;-8.10;99.90
30250;DHT22;17064;47.974;13.826;2022-12-18T06:44:43;-8.10;99.90
30250;DHT22;17064;47.974;13.826;2022-12-18T06:49:44;-8.10;99.90
30250;DHT22;17064;47.974;13.826;2022-12-18T06:54:44;-8.10;99.90
30250;DHT22;17064;47.974;13.826;2022-12-18T06:59:45;-8.10;99.90
30250;DHT22;17064;47.974;13.826;2022-12-18T07:04:46;-8.00;99.90
30250;DHT22;17064;47.974;13.826;2022-12-18T07:09:46;-8.00;99.90
30250;DHT22;17064;47.974;13.826;2022-12-18T07:14:47;-8.00;99.90
30250;DHT22;17064;47.974;13.826;2022-12-18T07:19:48;-8.00;99.90
30250;DHT22;17064;47.974;13.826;2022-12-18T07:24:48;-8.10;99.90
30250;DHT22;17064;47.974;13.826;2022-12-18T07:29:49;-8.10;99.90
30250;DHT22;17064;47.974;13.826;2022-12-18T07:34:50;-8.10;99.90
30250;DHT22;17064;47.974;13.826;2022-12-18T07:39:50;-8.10;99.90
30250;DHT22;17064;47.974;13.826;2022-12-18T07:44:51;-8.10;99.90
30250;DHT22;17064;47.974;13.826;2022-12-18T07:49:52;-8.10;99.90
30250;DHT22;17064;47.974;13.826;2022-12-18T07:54:52;-8.10;99.90
30250;DHT22;17064;47.974;13.826;2022-12-18T07:59:53;-8.10;99.90
30250;DHT22;17064;47.974;13.826;2022-12-18T08:04:54;-7.90;99.90
30250;DHT22;17064;47.974;13.826;2022-12-18T08:09:54;-7.80;99.90
30250;DHT22;17064;47.974;13.826;2022-12-18T08:14:55;-7.80;99.90
30250;DHT22;17064;47.974;13.826;2022-12-18T08:19:56;-7.70;99.90
30250;DHT22;17064;47.974;13.826;2022-12-18T08:24:56;-7.60;99.90
30250;DHT22;17064;47.974;13.826;2022-12-18T08:29:57;-7.60;99.90
30250;DHT22;17064;47.974;13.826;2022-12-18T08:34:58;-7.50;99.90
30250;DHT22;17064;47.974;13.826;2022-12-18T08:40:00;-7.30;99.90
30250;DHT22;17064;47.974;13.826;2022-12-18T08:45:01;-7.20;99.90
30250;DHT22;17064;47.974;13.826;2022-12-18T08:50:02;-7.10;99.90
30250;DHT22;17064;47.974;13.826;2022-12-18T08:55:04;-7.10;99.90
30250;DHT22;17064;47.974;13.826;2022-12-18T09:00:05;-7.10;99.90
30250;DHT22;17064;47.974;13.826;2022-12-18T09:05:06;-7.00;99.90
30250;DHT22;17064;47.974;13.826;2022-12-18T09:10:07;-6.80;99.90
30250;DHT22;17064;47.974;13.826;2022-12-18T09:15:08;-6.70;99.90
30250;DHT22;17064;47.974;13.826;2022-12-18T09:20:09;-6.60;99.90
30250;DHT22;17064;47.974;13.826;2022-12-18T09:25:10;-6.40;99.90
30250;DHT22;17064;47.974;13.826;2022-12-18T09:30:11;-6.30;99.90
30250;DHT22;17064;47.974;13.826;2022-12-18T09:35:14;-6.30;99.90
30250;DHT22;17064;47.974;13.826;2022-12-18T09:40:21;-6.30;99.90
30250;DHT22;17064;47.974;13.826;2022-12-18T09:45:23;-6.30;99.90
30250;DHT22;17064;47.974;13.826;2022-12-18T09:50:34;-6.20;99.90
30250;DHT22;17064;47.974;13.826;2022-12-18T09:55:41;-6.10;99.90
30250;DHT22;17064;47.974;13.826;2022-12-18T10:00:42;-6.00;99.90
30250;DHT22;17064;47.974;13.826;2022-12-18T10:06:04;-5.90;99.90
30250;DHT22;17064;47.974;13.826;2022-12-18T10:11:40;-5.70;99.90
30250;DHT22;17064;47.974;13.826;2022-12-18T10:17:28;-5.50;99.90
30250;DHT22;17064;47.974;13.826;2022-12-18T10:27:36;-5.40;99.90
30250;DHT22;17064;47.974;13.826;2022-12-18T10:32:37;-5.30;99.90
30250;DHT22;17064;47.974;13.826;2022-12-18T10:37:59;-5.10;99.90
30250;DHT22;17064;47.974;13.826;2022-12-18T10:43:14;-4.70;99.90
30250;DHT22;17064;47.974;13.826;2022-12-18T10:48:22;-4.50;99.90
30250;DHT22;17064;47.974;13.826;2022-12-18T10:53:26;-4.30;99.90
30250;DHT22;17064;47.974;13.826;2022-12-18T10:58:33;-4.60;99.90
30250;DHT22;17064;47.974;13.826;2022-12-18T11:03:58;-4.70;99.90
30250;DHT22;17064;47.974;13.826;2022-12-18T11:09:04;-4.40;99.90
30250;DHT22;17064;47.974;13.826;2022-12-18T11:14:13;-4.40;99.90
30250;DHT22;17064;47.974;13.826;2022-12-18T11:19:37;-4.30;99.90
30250;DHT22;17064;47.974;13.826;2022-12-18T11:24:40;-4.10;99.90
30250;DHT22;17064;47.974;13.826;2022-12-18T11:29:40;-4.00;99.90
30250;DHT22;17064;47.974;13.826;2022-12-18T11:34:46;-3.90;99.90
30250;DHT22;17064;47.974;13.826;2022-12-18T11:40:18;-3.90;99.90
30250;DHT22;17064;47.974;13.826;2022-12-18T11:45:25;-3.90;99.90
30250;DHT22;17064;47.974;13.826;2022-12-18T11:50:46;-3.80;99.90
30250;DHT22;17064;47.974;13.826;2022-12-18T11:56:02;-3.70;99.90
30250;DHT22;17064;47.974;13.826;2022-12-18T12:06:31;-3.50;99.90
30250;DHT22;17064;47.974;13.826;2022-12-18T12:17:06;-3.60;99.90
30250;DHT22;17064;47.974;13.826;2022-12-18T12:43:44;-3.90;99.90
30250;DHT22;17064;47.974;13.826;2022-12-18T12:48:56;-3.90;99.90
30250;DHT22;17064;47.974;13.826;2022-12-18T12:53:59;-3.90;99.90
30250;DHT22;17064;47.974;13.826;2022-12-18T13:04:43;-4.50;99.90
30250;DHT22;17064;47.974;13.826;2022-12-18T13:15:34;-4.60;99.90
30250;DHT22;17064;47.974;13.826;2022-12-18T13:20:46;-4.70;99.90
30250;DHT22;17064;47.974;13.826;2022-12-18T13:25:47;-4.70;99.90
30250;DHT22;17064;47.974;13.826;2022-12-18T13:30:50;-4.60;99.90
30250;DHT22;17064;47.974;13.826;2022-12-18T13:40:55;-4.70;99.90
30250;DHT22;17064;47.974;13.826;2022-12-18T13:46:16;-5.10;99.90
30250;DHT22;17064;47.974;13.826;2022-12-18T13:51:19;-5.30;99.90
30250;DHT22;17064;47.974;13.826;2022-12-18T13:56:29;-5.50;99.90
30250;DHT22;17064;47.974;13.826;2022-12-18T14:01:30;-5.50;99.90
30250;DHT22;17064;47.974;13.826;2022-12-18T14:06:31;-5.40;99.90
30250;DHT22;17064;47.974;13.826;2022-12-18T14:16:41;-5.40;99.90
30250;DHT22;17064;47.974;13.826;2022-12-18T14:21:49;-5.40;99.90
30250;DHT22;17064;47.974;13.826;2022-12-18T14:26:50;-5.40;99.90
30250;DHT22;17064;47.974;13.826;2022-12-18T14:32:11;-5.40;99.90
30250;DHT22;17064;47.974;13.826;2022-12-18T14:37:25;-5.40;99.90
30250;DHT22;17064;47.974;13.826;2022-12-18T14:42:31;-5.50;99.90
30250;DHT22;17064;47.974;13.826;2022-12-18T14:47:32;-5.60;99.90
30250;DHT22;17064;47.974;13.826;2022-12-18T14:52:33;-5.60;99.90
30250;DHT22;17064;47.974;13.826;2022-12-18T14:57:37;-5.60;99.90
30250;DHT22;17064;47.974;13.826;2022-12-18T15:02:43;-5.70;99.90
30250;DHT22;17064;47.974;13.826;2022-12-18T15:07:48;-5.70;99.90
30250;DHT22;17064;47.974;13.826;2022-12-18T15:23:28;-5.90;99.90
30250;DHT22;17064;47.974;13.826;2022-12-18T15:28:37;-6.00;99.90
30250;DHT22;17064;47.974;13.826;2022-12-18T15:34:09;-6.00;99.90
30250;DHT22;17064;47.974;13.826;2022-12-18T15:39:12;-6.00;99.90
30250;DHT22;17064;47.974;13.826;2022-12-18T15:44:22;-6.00;99.90
30250;DHT22;17064;47.974;13.826;2022-12-18T15:49:24;-6.10;99.90
30250;DHT22;17064;47.974;13.826;2022-12-18T15:54:24;-6.10;99.90
30250;DHT22;17064;47.974;13.826;2022-12-18T15:59:44;-6.20;99.90
30250;DHT22;17064;47.974;13.826;2022-12-18T16:04:45;-6.30;99.90
30250;DHT22;17064;47.974;13.826;2022-12-18T16:09:46;-6.40;99.90
30250;DHT22;17064;47.974;13.826;2022-12-18T16:14:48;-6.40;99.90
30250;DHT22;17064;47.974;13.826;2022-12-18T16:19:49;-6.30;99.90
30250;DHT22;17064;47.974;13.826;2022-12-18T16:24:51;-6.30;99.90
30250;DHT22;17064;47.974;13.826;2022-12-18T16:29:53;-6.20;99.90
30250;DHT22;17064;47.974;13.826;2022-12-18T16:34:59;-6.10;99.90
30250;DHT22;17064;47.974;13.826;2022-12-18T16:40:02;-5.90;99.90
30250;DHT22;17064;47.974;13.826;2022-12-18T16:45:05;-5.80;99.90
30250;DHT22;17064;47.974;13.826;2022-12-18T16:50:07;-5.70;99.90
30250;DHT22;17064;47.974;13.826;2022-12-18T16:55:08;-5.60;99.90
30250;DHT22;17064;47.974;13.826;2022-12-18T17:00:10;-5.60;99.90
30250;DHT22;17064;47.974;13.826;2022-12-18T17:05:11;-5.60;99.90
30250;DHT22;17064;47.974;13.826;2022-12-18T17:10:13;-5.60;99.90
30250;DHT22;17064;47.974;13.826;2022-12-18T17:15:14;-5.60;99.90
30250;DHT22;17064;47.974;13.826;2022-12-18T17:20:15;-5.60;99.90
30250;DHT22;17064;47.974;13.826;2022-12-18T17:25:17;-5.60;99.90
30250;DHT22;17064;47.974;13.826;2022-12-18T17:30:18;-5.60;99.90
30250;DHT22;17064;47.974;13.826;2022-12-18T17:35:19;-5.60;99.90
30250;DHT22;17064;47.974;13.826;2022-12-18T17:40:20;-5.60;99.90
30250;DHT22;17064;47.974;13.826;2022-12-18T17:45:22;-5.50;99.90
30250;DHT22;17064;47.974;13.826;2022-12-18T17:50:24;-5.40;99.90
30250;DHT22;17064;47.974;13.826;2022-12-18T17:55:26;-5.40;99.90
30250;DHT22;17064;47.974;13.826;2022-12-18T18:00:27;-5.40;99.90
30250;DHT22;17064;47.974;13.826;2022-12-18T18:05:29;-5.30;99.90
30250;DHT22;17064;47.974;13.826;2022-12-18T18:10:30;-5.30;99.90
30250;DHT22;17064;47.974;13.826;2022-12-18T18:15:32;-5.30;99.90
30250;DHT22;17064;47.974;13.826;2022-12-18T18:20:38;-5.30;99.90
30250;DHT22;17064;47.974;13.826;2022-12-18T18:25:43;-5.30;99.90
30250;DHT22;17064;47.974;13.826;2022-12-18T18:30:45;-5.30;99.90
30250;DHT22;17064;47.974;13.826;2022-12-18T18:35:46;-5.40;99.90
30250;DHT22;17064;47.974;13.826;2022-12-18T18:40:47;-5.40;99.90
30250;DHT22;17064;47.974;13.826;2022-12-18T18:45:48;-5.30;99.90
30250;DHT22;17064;47.974;13.826;2022-12-18T18:51:00;-5.40;99.90
30250;DHT22;17064;47.974;13.826;2022-12-18T18:56:01;-5.40;99.90
30250;DHT22;17064;47.974;13.826;2022-12-18T19:01:07;-5.40;99.90
30250;DHT22;17064;47.974;13.826;2022-12-18T19:06:17;-5.40;99.90
30250;DHT22;17064;47.974;13.826;2022-12-18T19:11:20;-5.40;99.90
30250;DHT22;17064;47.974;13.826;2022-12-18T19:16:58;-5.40;99.90
30250;DHT22;17064;47.974;13.826;2022-12-18T19:22:00;-5.40;99.90
30250;DHT22;17064;47.974;13.826;2022-12-18T19:27:01;-5.40;99.90
30250;DHT22;17064;47.974;13.826;2022-12-18T19:32:02;-5.40;99.90
30250;DHT22;17064;47.974;13.826;2022-12-18T19:37:03;-5.50;99.90
30250;DHT22;17064;47.974;13.826;2022-12-18T19:42:04;-5.50;99.90
30250;DHT22;17064;47.974;13.826;2022-12-18T19:47:05;-5.50;99.90
30250;DHT22;17064;47.974;13.826;2022-12-18T19:52:06;-5.50;99.90
30250;DHT22;17064;47.974;13.826;2022-12-18T19:57:07;-5.60;99.90
30250;DHT22;17064;47.974;13.826;2022-12-18T20:02:14;-5.70;99.90
30250;DHT22;17064;47.974;13.826;2022-12-18T20:07:15;-5.70;99.90
30250;DHT22;17064;47.974;13.826;2022-12-18T20:12:16;-5.80;99.90
30250;DHT22;17064;47.974;13.826;2022-12-18T20:17:17;-5.80;99.90
30250;DHT22;17064;47.974;13.826;2022-12-18T20:22:20;-5.80;99.90
30250;DHT22;17064;47.974;13.826;2022-12-18T20:27:21;-5.90;99.90
30250;DHT22;17064;47.974;13.826;2022-12-18T20:32:23;-5.80;99.90
30250;DHT22;17064;47.974;13.826;2022-12-18T20:37:24;-5.80;99.90
30250;DHT22;17064;47.974;13.826;2022-12-18T20:42:25;-5.70;99.90
30250;DHT22;17064;47.974;13.826;2022-12-18T20:47:26;-5.70;99.90
30250;DHT22;17064;47.974;13.826;2022-12-18T20:52:27;-5.60;99.90
30250;DHT22;17064;47.974;13.826;2022-12-18T20:57:28;-5.60;99.90
30250;DHT22;17064;47.974;13.826;2022-12-18T21:02:29;-5.60;99.90
30250;DHT22;17064;47.974;13.826;2022-12-18T21:07:30;-5.60;99.90
30250;DHT22;17064;47.974;13.826;2022-12-18T21:12:30;-5.60;99.90
30250;DHT22;17064;47.974;13.826;2022-12-18T21:17:34;-5.60;99.90
30250;DHT22;17064;47.974;13.826;2022-12-18T21:22:35;-5.50;99.90
30250;DHT22;17064;47.974;13.826;2022-12-18T21:27:36;-5.50;99.90
30250;DHT22;17064;47.974;13.826;2022-12-18T21:32:37;-5.60;99.90
30250;DHT22;17064;47.974;13.826;2022-12-18T21:37:37;-5.60;99.90
30250;DHT22;17064;47.974;13.826;2022-12-18T21:42:38;-5.60;99.90
30250;DHT22;17064;47.974;13.826;2022-12-18T21:47:57;-5.60;99.90
30250;DHT22;17064;47.974;13.826;2022-12-18T21:52:58;-5.70;99.90
30250;DHT22;17064;47.974;13.826;2022-12-18T21:57:58;-5.70;99.90
30250;DHT22;17064;47.974;13.826;2022-12-18T22:02:59;-5.70;99.90
30250;DHT22;17064;47.974;13.826;2022-12-18T22:08:00;-5.60;99.90
30250;DHT22;17064;47.974;13.826;2022-12-18T22:13:01;-5.60;99.90
30250;DHT22;17064;47.974;13.826;2022-12-18T22:18:02;-5.70;99.90
30250;DHT22;17064;47.974;13.826;2022-12-18T22:23:02;-5.80;99.90
30250;DHT22;17064;47.974;13.826;2022-12-18T22:28:03;-5.80;99.90
30250;DHT22;17064;47.974;13.826;2022-12-18T22:33:23;-5.80;99.90
30250;DHT22;17064;47.974;13.826;2022-12-18T22:38:24;-5.80;99.90
30250;DHT22;17064;47.974;13.826;2022-12-18T22:43:25;-5.80;99.90
30250;DHT22;17064;47.974;13.826;2022-12-18T22:48:25;-5.90;99.90
30250;DHT22;17064;47.974;13.826;2022-12-18T22:53:26;-5.90;99.90
30250;DHT22;17064;47.974;13.826;2022-12-18T22:58:27;-5.90;99.90
30250;DHT22;17064;47.974;13.826;2022-12-18T23:03:28;-6.00;99.90
30250;DHT22;17064;47.974;13.826;2022-12-18T23:08:28;-5.90;99.90
30250;DHT22;17064;47.974;13.826;2022-12-18T23:13:29;-5.90;99.90
30250;DHT22;17064;47.974;13.826;2022-12-18T23:18:30;-6.00;99.90
30250;DHT22;17064;47.974;13.826;2022-12-18T23:23:33;-6.00;99.90
30250;DHT22;17064;47.974;13.826;2022-12-18T23:28:34;-5.90;99.90
30250;DHT22;17064;47.974;13.826;2022-12-18T23:33:35;-5.90;99.90
30250;DHT22;17064;47.974;13.826;2022-12-18T23:38:36;-5.90;99.90
30250;DHT22;17064;47.974;13.826;2022-12-18T23:43:37;-5.90;99.90
30250;DHT22;17064;47.974;13.826;2022-12-18T23:48:38;-5.90;99.90
30250;DHT22;17064;47.974;13.826;2022-12-18T23:53:39;-5.90;99.90
30250;DHT22;17064;47.974;13.826;2022-12-18T23:58:41;-5.90;99.90
